createdAt,value
2023-02-18T00:01:10.962Z,1.6
2023-02-18T00:02:27.259Z,1.6
2023-02-18T00:03:43.558Z,1.5
2023-02-18T00:04:59.847Z,1.7
2023-02-18T00:06:16.131Z,1.5
2023-02-18T00:07:32.437Z,1.5
2023-02-18T00:08:48.719Z,1.6
2023-02-18T00:10:05.016Z,1.5
2023-02-18T00:12:37.621Z,1.5
2023-02-18T00:13:52.928Z,1.6
2023-02-18T00:15:09.211Z,1.5
2023-02-18T00:17:41.806Z,1.7
2023-02-18T00:18:58.096Z,1.4
2023-02-18T00:20:13.404Z,1.5
2023-02-18T00:21:28.718Z,1.3
2023-02-18T00:22:45.014Z,1.6
2023-02-18T00:25:17.611Z,2
2023-02-18T00:26:33.906Z,1.6
2023-02-18T00:27:50.196Z,1.4
2023-02-18T00:29:06.501Z,1.6
2023-02-18T00:30:22.785Z,1.7
2023-02-18T00:31:39.081Z,1.4
2023-02-18T00:32:55.364Z,1.9
2023-02-18T00:34:11.663Z,1.8
2023-02-18T00:35:27.957Z,1.7
2023-02-18T00:36:44.248Z,1.8
2023-02-18T00:37:59.574Z,1.8
2023-02-18T00:39:15.865Z,1.6
2023-02-18T00:40:32.147Z,1.6
2023-02-18T00:41:48.456Z,1.8
2023-02-18T00:43:04.737Z,1.8
2023-02-18T00:44:21.046Z,1.7
2023-02-18T00:45:37.344Z,1.6
2023-02-18T00:46:53.632Z,1.7
2023-02-18T00:48:09.923Z,1.7
2023-02-18T00:49:26.224Z,1.8
2023-02-18T00:50:41.543Z,1.8
2023-02-18T00:51:56.840Z,1.8
2023-02-18T00:53:13.142Z,1.8
2023-02-18T00:55:45.718Z,1.7
2023-02-18T00:57:02.017Z,2
2023-02-18T00:58:18.310Z,1.9
2023-02-18T00:59:34.604Z,2.3
2023-02-18T01:00:50.898Z,1.8
2023-02-18T01:02:07.205Z,1.8
2023-02-18T01:03:23.487Z,1.9
2023-02-18T01:05:56.080Z,2
2023-02-18T01:07:11.403Z,2
2023-02-18T01:08:26.704Z,1.9
2023-02-18T01:09:42.999Z,2.1
2023-02-18T01:10:59.294Z,2.3
2023-02-18T01:13:31.892Z,2.1
2023-02-18T01:14:48.182Z,2.4
2023-02-18T01:16:04.472Z,2.3
2023-02-18T01:17:20.771Z,2.3
2023-02-18T01:18:37.058Z,2.1
2023-02-18T01:19:53.350Z,2.1
2023-02-18T01:21:09.643Z,2.1
2023-02-18T01:22:25.933Z,1.9
2023-02-18T01:23:42.241Z,2.2
2023-02-18T01:24:58.532Z,2
2023-02-18T01:26:14.825Z,1.9
2023-02-18T01:27:30.138Z,1.8
2023-02-18T01:28:46.419Z,1.7
2023-02-18T01:30:02.718Z,2
2023-02-18T01:31:19.024Z,1.8
2023-02-18T01:32:35.322Z,1.9
2023-02-18T01:33:51.618Z,2
2023-02-18T01:35:06.933Z,1.8
2023-02-18T01:36:22.241Z,1.9
2023-02-18T01:37:38.524Z,2
2023-02-18T01:38:54.828Z,1.9
2023-02-18T01:40:11.121Z,1.8
2023-02-18T01:41:27.411Z,1.7
2023-02-18T01:42:43.709Z,1.6
2023-02-18T01:44:00.008Z,1.9
2023-02-18T01:45:16.290Z,1.7
2023-02-18T01:46:32.597Z,1.8
2023-02-18T01:47:48.889Z,1.7
2023-02-18T01:49:05.181Z,1.6
2023-02-18T01:50:21.472Z,1.7
2023-02-18T01:51:37.758Z,1.5
2023-02-18T01:52:53.080Z,1.6
2023-02-18T01:54:09.381Z,1.6
2023-02-18T01:56:41.963Z,1.4
2023-02-18T01:57:58.253Z,1.6
2023-02-18T01:59:14.547Z,1.4
2023-02-18T02:00:30.837Z,1.7
2023-02-18T02:01:47.131Z,1.6
2023-02-18T02:03:03.434Z,1.4
2023-02-18T02:04:19.732Z,1.4
2023-02-18T02:05:36.024Z,1.4
2023-02-18T02:06:52.327Z,1.4
2023-02-18T02:08:08.616Z,1.5
2023-02-18T02:09:23.915Z,1.5
2023-02-18T02:10:40.214Z,1.8
2023-02-18T02:11:56.505Z,1.5
2023-02-18T02:13:12.808Z,1.4
2023-02-18T02:15:45.404Z,1.3
2023-02-18T02:17:01.698Z,1.6
2023-02-18T02:19:34.285Z,1.3
2023-02-18T02:20:50.722Z,1.6
2023-02-18T02:22:06.015Z,1.5
2023-02-18T02:23:22.322Z,1.5
2023-02-18T02:24:38.608Z,1.5
2023-02-18T02:25:54.918Z,1.5
2023-02-18T02:27:11.198Z,1.4
2023-02-18T02:28:27.500Z,1.5
2023-02-18T02:31:00.090Z,1.6
2023-02-18T02:32:16.379Z,1.6
2023-02-18T02:33:32.680Z,1.5
2023-02-18T02:34:48.959Z,1.5
2023-02-18T02:36:05.272Z,1.6
2023-02-18T02:37:21.551Z,1.4
2023-02-18T02:39:54.272Z,1.4
2023-02-18T02:41:09.578Z,1.5
2023-02-18T02:42:24.885Z,1.4
2023-02-18T02:43:41.187Z,1.7
2023-02-18T02:44:57.474Z,1.5
2023-02-18T02:46:13.787Z,1.6
2023-02-18T02:47:30.077Z,1.5
2023-02-18T02:48:46.372Z,2
2023-02-18T02:50:02.670Z,1.7
2023-02-18T02:51:18.957Z,1.6
2023-02-18T02:52:35.260Z,1.6
2023-02-18T02:53:51.000Z,1.6
2023-02-18T02:55:06.861Z,1.8
2023-02-18T02:57:39.439Z,1.5
2023-02-18T02:58:55.863Z,1.8
2023-02-18T03:00:12.159Z,1.8
2023-02-18T03:01:28.454Z,2
2023-02-18T03:02:44.754Z,1.7
2023-02-18T03:04:01.049Z,1.9
2023-02-18T03:05:17.466Z,1.8
2023-02-18T03:06:33.763Z,1.9
2023-02-18T03:07:50.045Z,1.9
2023-02-18T03:09:06.354Z,1.8
2023-02-18T03:10:21.664Z,2
2023-02-18T03:11:37.949Z,1.8
2023-02-18T03:12:53.264Z,1.9
2023-02-18T03:14:09.565Z,1.9
2023-02-18T03:15:25.855Z,1.9
2023-02-18T03:16:42.147Z,2
2023-02-18T03:17:58.450Z,2
2023-02-18T03:19:14.744Z,2.1
2023-02-18T03:20:31.045Z,2.2
2023-02-18T03:21:47.323Z,2
2023-02-18T03:23:03.625Z,1.9
2023-02-18T03:24:19.909Z,2
2023-02-18T03:25:36.216Z,1.9
2023-02-18T03:26:52.508Z,2
2023-02-18T03:28:08.000Z,1.8
2023-02-18T03:29:25.212Z,1.9
2023-02-18T03:30:41.519Z,2.1
2023-02-18T03:31:57.796Z,2
2023-02-18T03:33:14.102Z,1.8
2023-02-18T03:34:30.386Z,2.1
2023-02-18T03:35:46.692Z,2.1
2023-02-18T03:37:02.986Z,2
2023-02-18T03:38:19.286Z,2.2
2023-02-18T03:39:35.567Z,2.2
2023-02-18T03:40:51.874Z,2.2
2023-02-18T03:42:08.167Z,2.3
2023-02-18T03:43:24.448Z,2
2023-02-18T03:44:40.740Z,2.1
2023-02-18T03:45:56.058Z,2.3
2023-02-18T03:47:12.359Z,2.3
2023-02-18T03:48:28.656Z,2.2
2023-02-18T03:51:01.233Z,2.4
2023-02-18T03:52:17.522Z,2.4
2023-02-18T03:53:33.827Z,2.4
2023-02-18T03:54:50.117Z,2.4
2023-02-18T03:57:22.711Z,2.6
2023-02-18T03:58:39.003Z,2.4
2023-02-18T03:59:55.301Z,2.6
2023-02-18T04:01:11.597Z,2.7
2023-02-18T04:02:26.906Z,2.8
2023-02-18T04:03:43.195Z,2.7
2023-02-18T04:04:59.495Z,2.5
2023-02-18T04:06:15.779Z,2.6
2023-02-18T04:07:32.074Z,2.6
2023-02-18T04:08:48.363Z,2.4
2023-02-18T04:10:04.664Z,2.5
2023-02-18T04:11:20.948Z,2.2
2023-02-18T04:12:37.255Z,2.4
2023-02-18T04:13:53.547Z,2.3
2023-02-18T04:15:09.832Z,2.9
2023-02-18T04:16:26.126Z,2.4
2023-02-18T04:17:42.424Z,2.4
2023-02-18T04:18:57.735Z,2.3
2023-02-18T04:20:14.028Z,2.3
2023-02-18T04:21:30.318Z,2.4
2023-02-18T04:22:46.612Z,2.1
2023-02-18T04:24:02.909Z,2.3
2023-02-18T04:25:19.206Z,2.2
2023-02-18T04:26:35.514Z,2.1
2023-02-18T04:27:51.795Z,1.8
2023-02-18T04:29:08.094Z,2.2
2023-02-18T04:30:24.393Z,2.1
2023-02-18T04:31:40.680Z,2.3
2023-02-18T04:32:56.979Z,2.1
2023-02-18T04:34:13.273Z,2.4
2023-02-18T04:35:28.588Z,2.1
2023-02-18T04:36:44.872Z,2.4
2023-02-18T04:38:01.168Z,2.3
2023-02-18T04:40:33.764Z,2.4
2023-02-18T04:41:50.061Z,2.3
2023-02-18T04:43:06.344Z,2.5
2023-02-18T04:44:22.643Z,2.4
2023-02-18T04:45:38.930Z,2.5
2023-02-18T04:46:55.239Z,2.4
2023-02-18T04:48:11.515Z,2.4
2023-02-18T04:49:27.811Z,2.5
2023-02-18T04:50:44.118Z,2.4
2023-02-18T04:52:00.528Z,2.6
2023-02-18T04:53:16.817Z,2.3
2023-02-18T04:54:33.110Z,2.6
2023-02-18T04:55:49.414Z,2.5
2023-02-18T04:57:05.703Z,2.3
2023-02-18T04:58:22.007Z,2.6
2023-02-18T04:59:38.290Z,2.5
2023-02-18T05:00:54.596Z,2.6
2023-02-18T05:02:10.878Z,2.5
2023-02-18T05:03:27.173Z,2.8
2023-02-18T05:04:43.469Z,2.9
2023-02-18T05:05:59.770Z,2.7
2023-02-18T05:07:16.061Z,3.1
2023-02-18T05:08:32.355Z,3
2023-02-18T05:09:48.654Z,3.3
2023-02-18T05:11:03.963Z,2.9
2023-02-18T05:12:20.258Z,3.1
2023-02-18T05:13:36.556Z,3
2023-02-18T05:14:52.854Z,3.2
2023-02-18T05:16:09.134Z,3.6
2023-02-18T05:17:25.431Z,3.8
2023-02-18T05:18:41.731Z,3.8
2023-02-18T05:19:58.027Z,3.8
2023-02-18T05:21:14.310Z,3.9
2023-02-18T05:22:30.614Z,4
2023-02-18T05:23:46.904Z,4.3
2023-02-18T05:25:03.197Z,4.2
2023-02-18T05:26:19.491Z,5.3
2023-02-18T05:27:34.805Z,5
2023-02-18T05:28:51.109Z,5.2
2023-02-18T05:30:07.404Z,5.3
2023-02-18T05:31:23.689Z,5.2
2023-02-18T05:32:40.002Z,5.4
2023-02-18T05:33:56.270Z,5.8
2023-02-18T05:35:12.572Z,6.2
2023-02-18T05:36:28.864Z,6.5
2023-02-18T05:37:45.151Z,6.7
2023-02-18T05:39:01.459Z,6.6
2023-02-18T05:40:17.754Z,7.2
2023-02-18T05:41:34.042Z,7.7
2023-02-18T05:42:50.348Z,7.7
2023-02-18T05:45:21.938Z,8
2023-02-18T05:46:38.231Z,8.7
2023-02-18T05:47:54.537Z,8.2
2023-02-18T05:49:10.817Z,10.3
2023-02-18T05:50:27.124Z,11.3
2023-02-18T05:51:43.423Z,11.6
2023-02-18T05:52:59.700Z,11.1
2023-02-18T05:54:16.003Z,10.4
2023-02-18T05:55:32.291Z,10.1
2023-02-18T05:56:48.547Z,9.9
2023-02-18T05:58:04.832Z,9.6
2023-02-18T05:59:21.132Z,10
2023-02-18T06:00:36.398Z,9.5
2023-02-18T06:01:52.624Z,9.8
2023-02-18T06:03:08.881Z,9.8
2023-02-18T06:04:25.121Z,9.7
2023-02-18T06:05:41.347Z,10.2
2023-02-18T06:06:57.617Z,10
2023-02-18T06:08:13.842Z,10.4
2023-02-18T06:09:30.089Z,10.3
2023-02-18T06:10:46.325Z,10.2
2023-02-18T06:12:02.558Z,10.8
2023-02-18T06:13:18.806Z,11.7
2023-02-18T06:14:35.042Z,10.3
2023-02-18T06:15:51.289Z,10.7
2023-02-18T06:17:06.539Z,11
2023-02-18T06:18:22.775Z,10.9
2023-02-18T06:19:39.034Z,11.7
2023-02-18T06:20:55.265Z,10.9
2023-02-18T06:23:27.738Z,11.1
2023-02-18T06:24:43.995Z,11.6
2023-02-18T06:26:00.217Z,11.6
2023-02-18T06:27:16.472Z,11.4
2023-02-18T06:28:32.714Z,11.4
2023-02-18T06:29:48.954Z,11.6
2023-02-18T06:31:05.198Z,12.1
2023-02-18T06:32:21.437Z,11.9
2023-02-18T06:33:36.691Z,12.2
2023-02-18T06:34:52.921Z,12.6
2023-02-18T06:36:09.172Z,12.5
2023-02-18T06:37:25.398Z,12.6
2023-02-18T06:38:41.643Z,12.8
2023-02-18T06:41:14.134Z,12.8
2023-02-18T06:42:30.360Z,13.2
2023-02-18T06:43:46.610Z,13.4
2023-02-18T06:46:19.083Z,13.3
2023-02-18T06:47:34.336Z,13.8
2023-02-18T06:48:49.603Z,14.5
2023-02-18T06:50:05.844Z,14.8
2023-02-18T06:51:22.086Z,15.2
2023-02-18T06:52:38.319Z,14.7
2023-02-18T06:53:54.569Z,15.4
2023-02-18T06:55:10.807Z,15.5
2023-02-18T06:56:27.051Z,15.1
2023-02-18T06:57:43.289Z,15.3
2023-02-18T06:58:59.513Z,16.2
2023-02-18T07:01:32.010Z,15.4
2023-02-18T07:02:48.248Z,16.1
2023-02-18T07:04:04.477Z,15.5
2023-02-18T07:05:19.741Z,15.8
2023-02-18T07:06:35.990Z,16.2
2023-02-18T07:07:52.215Z,15.6
2023-02-18T07:09:08.453Z,15.1
2023-02-18T07:10:24.695Z,14.3
2023-02-18T07:11:40.941Z,14.1
2023-02-18T07:12:57.176Z,14.9
2023-02-18T07:14:13.418Z,14.8
2023-02-18T07:15:29.666Z,14.7
2023-02-18T07:16:44.928Z,13.8
2023-02-18T07:18:01.288Z,13.8
2023-02-18T07:19:17.523Z,13.5
2023-02-18T07:20:33.768Z,13.4
2023-02-18T07:21:49.030Z,14.2
2023-02-18T07:23:05.266Z,13.5
2023-02-18T07:24:21.502Z,13.3
2023-02-18T07:25:37.756Z,13.8
2023-02-18T07:26:53.988Z,14.2
2023-02-18T07:28:10.221Z,15.2
2023-02-18T07:29:26.473Z,16.6
2023-02-18T07:30:42.710Z,16.7
2023-02-18T07:31:58.953Z,14.9
2023-02-18T07:33:15.189Z,15.1
2023-02-18T07:34:31.425Z,14.1
2023-02-18T07:35:47.664Z,13.4
2023-02-18T07:37:03.908Z,12.8
2023-02-18T07:38:19.161Z,12.6
2023-02-18T07:39:35.406Z,12.2
2023-02-18T07:40:51.649Z,12
2023-02-18T07:42:07.882Z,12.4
2023-02-18T07:43:24.125Z,12.3
2023-02-18T07:44:40.372Z,12.4
2023-02-18T07:45:56.607Z,12.6
2023-02-18T07:47:12.845Z,11.5
2023-02-18T07:48:29.104Z,11.6
2023-02-18T07:49:45.332Z,11.8
2023-02-18T07:51:01.584Z,11.5
2023-02-18T07:52:17.816Z,11.2
2023-02-18T07:53:34.049Z,11.4
2023-02-18T07:54:49.314Z,11.4
2023-02-18T07:56:05.543Z,11.3
2023-02-18T07:57:21.787Z,11.8
2023-02-18T07:58:38.038Z,11.6
2023-02-18T07:59:54.277Z,11
2023-02-18T08:02:26.744Z,11.2
2023-02-18T08:03:42.995Z,12.1
2023-02-18T08:04:59.236Z,11.7
2023-02-18T08:06:15.470Z,12
2023-02-18T08:07:31.710Z,11.7
2023-02-18T08:08:47.949Z,11.9
2023-02-18T08:10:04.186Z,11.8
2023-02-18T08:11:19.439Z,11.7
2023-02-18T08:12:35.692Z,11.8
2023-02-18T08:13:51.929Z,11.5
2023-02-18T08:15:08.175Z,10.6
2023-02-18T08:16:24.401Z,10.5
2023-02-18T08:17:40.639Z,10.2
2023-02-18T08:18:56.897Z,9.5
2023-02-18T08:20:13.126Z,10
2023-02-18T08:21:29.363Z,9.2
2023-02-18T08:22:45.602Z,9.4
2023-02-18T08:24:01.851Z,9.2
2023-02-18T08:25:18.077Z,9.3
2023-02-18T08:26:34.332Z,10.2
2023-02-18T08:27:49.575Z,9.6
2023-02-18T08:29:05.829Z,9.3
2023-02-18T08:30:22.065Z,8.6
2023-02-18T08:31:38.311Z,8.8
2023-02-18T08:32:54.536Z,8.4
2023-02-18T08:34:10.780Z,8.2
2023-02-18T08:35:27.022Z,7.9
2023-02-18T08:36:43.271Z,7.6
2023-02-18T08:37:59.512Z,7.2
2023-02-18T08:40:31.980Z,7.6
2023-02-18T08:41:48.233Z,7.4
2023-02-18T08:43:04.471Z,7.1
2023-02-18T08:44:19.722Z,6.6
2023-02-18T08:45:35.968Z,6.2
2023-02-18T08:46:52.204Z,6.2
2023-02-18T08:48:08.436Z,5.6
2023-02-18T08:49:24.687Z,5.7
2023-02-18T08:50:40.916Z,4.9
2023-02-18T08:51:57.157Z,5
2023-02-18T08:53:13.411Z,4.8
2023-02-18T08:54:29.647Z,5.1
2023-02-18T08:55:45.876Z,4.8
2023-02-18T08:57:02.127Z,4.9
2023-02-18T08:58:18.373Z,4.7
2023-02-18T08:59:34.603Z,4.8
2023-02-18T09:00:49.856Z,4
2023-02-18T09:02:06.097Z,4.1
2023-02-18T09:03:22.339Z,4.1
2023-02-18T09:04:38.569Z,4
2023-02-18T09:05:54.821Z,3.8
2023-02-18T09:07:11.059Z,3.7
2023-02-18T09:08:27.299Z,3.5
2023-02-18T09:10:59.777Z,2.9
2023-02-18T09:12:16.014Z,2.4
2023-02-18T09:13:32.259Z,2.7
2023-02-18T09:14:48.490Z,2.4
2023-02-18T09:16:04.736Z,2.5
2023-02-18T09:17:19.986Z,2.5
2023-02-18T09:18:36.235Z,2.4
2023-02-18T09:19:52.462Z,2.1
2023-02-18T09:21:08.703Z,2.2
2023-02-18T09:22:24.951Z,2.2
2023-02-18T09:23:41.198Z,2.1
2023-02-18T09:24:57.424Z,2.2
2023-02-18T09:26:13.670Z,1.9
2023-02-18T09:27:29.911Z,1.9
2023-02-18T09:28:46.162Z,1.8
2023-02-18T09:30:02.397Z,1.9
2023-02-18T09:31:18.624Z,1.8
2023-02-18T09:32:34.868Z,1.7
2023-02-18T09:33:50.125Z,1.6
2023-02-18T09:35:06.377Z,1.5
2023-02-18T09:36:22.616Z,1.7
2023-02-18T09:37:38.842Z,1.7
2023-02-18T09:38:55.083Z,1.6
2023-02-18T09:41:27.569Z,1.6
2023-02-18T09:42:43.807Z,1.5
2023-02-18T09:44:00.039Z,1.3
2023-02-18T09:45:16.000Z,1.4
2023-02-18T09:46:32.529Z,1.3
2023-02-18T09:47:48.763Z,1.2
2023-02-18T09:51:37.482Z,1.4
2023-02-18T09:52:53.726Z,1.5
2023-02-18T09:54:08.992Z,1.3
2023-02-18T09:55:24.247Z,1.4
2023-02-18T09:57:56.719Z,1.3
2023-02-18T09:59:12.971Z,1.3
2023-02-18T10:00:29.195Z,1.4
2023-02-18T10:01:45.450Z,1.2
2023-02-18T10:03:01.693Z,1.3
2023-02-18T10:04:17.933Z,1.5
2023-02-18T10:05:34.162Z,2
2023-02-18T10:06:50.415Z,1.8
2023-02-18T10:08:06.635Z,2
2023-02-18T10:09:22.880Z,1.9
2023-02-18T10:10:39.133Z,2.4
2023-02-18T10:11:54.384Z,2.1
2023-02-18T10:13:10.625Z,1.8
2023-02-18T10:14:26.869Z,1.8
2023-02-18T10:15:43.110Z,1.5
2023-02-18T10:16:59.330Z,1.6
2023-02-18T10:18:15.581Z,1.5
2023-02-18T10:19:31.827Z,1.3
2023-02-18T10:20:48.071Z,1.4
2023-02-18T10:22:03.320Z,1.2
2023-02-18T10:23:18.574Z,1.3
2023-02-18T10:24:34.826Z,1
2023-02-18T10:25:51.062Z,1.2
2023-02-18T10:27:07.296Z,1.2
2023-02-18T10:28:23.531Z,1.2
2023-02-18T10:29:39.775Z,1.2
2023-02-18T10:30:56.027Z,1.3
2023-02-18T10:32:12.267Z,1.1
2023-02-18T10:33:28.507Z,0.9
2023-02-18T10:34:44.729Z,0.9
2023-02-18T10:36:00.969Z,0.9
2023-02-18T10:37:17.219Z,1
2023-02-18T10:38:33.466Z,1
2023-02-18T10:39:48.704Z,1
2023-02-18T10:41:04.944Z,1
2023-02-18T10:42:21.200Z,0.9
2023-02-18T10:43:37.433Z,1
2023-02-18T10:44:53.671Z,1
2023-02-18T10:46:09.917Z,0.9
2023-02-18T10:47:26.157Z,1.2
2023-02-18T10:48:42.401Z,1.1
2023-02-18T10:49:58.643Z,1.1
2023-02-18T10:51:14.883Z,1.3
2023-02-18T10:52:31.107Z,1.2
2023-02-18T10:53:47.350Z,1.2
2023-02-18T10:55:03.594Z,0.9
2023-02-18T10:56:19.838Z,1.1
2023-02-18T10:57:35.084Z,1
2023-02-18T10:58:51.336Z,1
2023-02-18T11:00:07.562Z,1.4
2023-02-18T11:01:23.817Z,0.9
2023-02-18T11:02:40.059Z,1.3
2023-02-18T11:03:56.284Z,1.3
2023-02-18T11:05:12.532Z,0.9
2023-02-18T11:06:28.761Z,1.1
2023-02-18T11:07:45.012Z,1.1
2023-02-18T11:09:01.254Z,1
2023-02-18T11:10:17.482Z,1
2023-02-18T11:11:33.722Z,1
2023-02-18T11:14:06.205Z,1
2023-02-18T11:15:21.460Z,0.9
2023-02-18T11:16:37.700Z,0.9
2023-02-18T11:17:53.941Z,0.7
2023-02-18T11:19:10.193Z,1
2023-02-18T11:20:26.425Z,0.9
2023-02-18T11:21:42.672Z,0.9
2023-02-18T11:22:58.900Z,1.3
2023-02-18T11:24:15.140Z,1.2
2023-02-18T11:26:47.620Z,1.3
2023-02-18T11:28:03.871Z,0.8
2023-02-18T11:29:20.115Z,1
2023-02-18T11:30:36.343Z,1.1
2023-02-18T11:31:51.609Z,0.8
2023-02-18T11:33:07.837Z,0.9
2023-02-18T11:34:24.079Z,0.7
2023-02-18T11:36:56.554Z,0.8
2023-02-18T11:38:11.829Z,0.6
2023-02-18T11:39:27.085Z,0.8
2023-02-18T11:40:43.341Z,1
2023-02-18T11:41:59.572Z,1
2023-02-18T11:43:15.806Z,0.9
2023-02-18T11:45:48.302Z,0.7
2023-02-18T11:47:04.540Z,0.7
2023-02-18T11:48:20.778Z,0.9
2023-02-18T11:50:53.258Z,0.8
2023-02-18T11:52:09.498Z,0.8
2023-02-18T11:53:25.738Z,0.8
2023-02-18T11:54:41.000Z,0.8
2023-02-18T11:55:56.240Z,0.8
2023-02-18T11:57:12.495Z,0.8
2023-02-18T11:58:28.736Z,0.8
2023-02-18T11:59:44.974Z,0.8
2023-02-18T12:01:01.209Z,0.8
2023-02-18T12:02:17.442Z,0.8
2023-02-18T12:03:33.681Z,0.9
2023-02-18T12:04:49.927Z,0.9
2023-02-18T12:06:06.171Z,0.9
2023-02-18T12:07:22.408Z,1
2023-02-18T12:08:37.670Z,0.7
2023-02-18T12:09:53.920Z,0.9
2023-02-18T12:11:09.156Z,1
2023-02-18T12:12:25.416Z,1
2023-02-18T12:13:41.654Z,1
2023-02-18T12:14:57.893Z,0.9
2023-02-18T12:16:14.122Z,1
2023-02-18T12:17:30.367Z,1.1
2023-02-18T12:18:46.599Z,1.2
2023-02-18T12:20:02.840Z,1.3
2023-02-18T12:21:19.079Z,1.2
2023-02-18T12:22:34.359Z,0.8
2023-02-18T12:23:49.601Z,0.9
2023-02-18T12:25:05.853Z,0.8
2023-02-18T12:26:22.092Z,0.9
2023-02-18T12:27:38.319Z,0.8
2023-02-18T12:28:54.574Z,0.9
2023-02-18T12:30:10.811Z,0.9
2023-02-18T12:31:27.040Z,1
2023-02-18T12:32:43.274Z,1
2023-02-18T12:33:59.525Z,1.1
2023-02-18T12:35:15.762Z,0.9
2023-02-18T12:36:32.007Z,0.8
2023-02-18T12:37:48.239Z,0.9
2023-02-18T12:39:04.481Z,0.9
2023-02-18T12:40:19.740Z,0.8
2023-02-18T12:41:35.983Z,0.8
2023-02-18T12:42:52.229Z,0.8
2023-02-18T12:44:08.465Z,0.9
2023-02-18T12:45:24.710Z,1.1
2023-02-18T12:46:40.947Z,1.1
2023-02-18T12:47:57.174Z,1
2023-02-18T12:49:13.417Z,1.1
2023-02-18T12:50:29.671Z,1.2
2023-02-18T12:51:45.904Z,1.1
2023-02-18T12:53:02.147Z,0.9
2023-02-18T12:54:18.386Z,1.1
2023-02-18T12:55:34.614Z,0.9
2023-02-18T12:56:49.877Z,0.8
2023-02-18T12:58:06.114Z,1
2023-02-18T12:59:22.358Z,1
2023-02-18T13:00:38.600Z,1.2
2023-02-18T13:01:54.831Z,1
2023-02-18T13:03:11.070Z,0.9
2023-02-18T13:04:27.311Z,0.9
2023-02-18T13:05:43.555Z,0.9
2023-02-18T13:06:59.797Z,0.9
2023-02-18T13:08:16.044Z,1.1
2023-02-18T13:09:32.280Z,1.2
2023-02-18T13:10:48.517Z,0.9
2023-02-18T13:12:04.766Z,0.9
2023-02-18T13:13:21.001Z,1
2023-02-18T13:14:36.247Z,1.1
2023-02-18T13:15:52.485Z,1
2023-02-18T13:17:08.733Z,1
2023-02-18T13:18:24.968Z,1
2023-02-18T13:19:41.208Z,1.2
2023-02-18T13:20:57.460Z,1.1
2023-02-18T13:22:13.688Z,1
2023-02-18T13:23:29.937Z,0.8
2023-02-18T13:24:46.186Z,1.1
2023-02-18T13:26:02.424Z,1
2023-02-18T13:27:18.664Z,1.1
2023-02-18T13:28:34.900Z,1.2
2023-02-18T13:29:51.135Z,1
2023-02-18T13:31:07.372Z,1
2023-02-18T13:33:38.861Z,1
2023-02-18T13:34:55.102Z,1.1
2023-02-18T13:36:11.362Z,0.9
2023-02-18T13:37:27.591Z,0.8
2023-02-18T13:38:43.825Z,1.1
2023-02-18T13:40:00.078Z,0.9
2023-02-18T13:41:16.313Z,1
2023-02-18T13:42:32.550Z,1
2023-02-18T13:43:48.791Z,1
2023-02-18T13:45:05.034Z,1.1
2023-02-18T13:46:21.276Z,1
2023-02-18T13:47:37.503Z,0.9
2023-02-18T13:48:52.766Z,0.9
2023-02-18T13:50:08.999Z,0.9
2023-02-18T13:51:25.240Z,0.9
2023-02-18T13:52:41.486Z,1.1
2023-02-18T13:55:13.956Z,1.3
2023-02-18T13:56:30.199Z,1
2023-02-18T13:57:46.442Z,1.1
2023-02-18T13:59:02.690Z,0.9
2023-02-18T14:00:18.934Z,1.1
2023-02-18T14:01:35.175Z,1.2
2023-02-18T14:02:51.403Z,1.1
2023-02-18T14:04:07.638Z,1.2
2023-02-18T14:05:22.895Z,1.5
2023-02-18T14:06:39.138Z,1.1
2023-02-18T14:07:55.390Z,1
2023-02-18T14:09:11.622Z,1.2
2023-02-18T14:10:27.859Z,0.9
2023-02-18T14:11:44.099Z,1.1
2023-02-18T14:13:00.352Z,1.1
2023-02-18T14:14:16.579Z,1.1
2023-02-18T14:15:32.813Z,1
2023-02-18T14:16:49.062Z,1.2
2023-02-18T14:18:05.295Z,1.1
2023-02-18T14:19:21.533Z,1.1
2023-02-18T14:20:37.780Z,1.1
2023-02-18T14:21:53.042Z,1.1
2023-02-18T14:23:09.273Z,1.2
2023-02-18T14:24:25.513Z,1.2
2023-02-18T14:25:41.751Z,1.4
2023-02-18T14:26:57.998Z,1.2
2023-02-18T14:28:14.242Z,1.4
2023-02-18T14:29:30.483Z,1.4
2023-02-18T14:30:46.710Z,1.2
2023-02-18T14:32:02.966Z,1.2
2023-02-18T14:33:19.191Z,1.5
2023-02-18T14:34:35.451Z,1.3
2023-02-18T14:35:51.684Z,1.4
2023-02-18T14:37:07.918Z,1.6
2023-02-18T14:38:23.165Z,1.6
2023-02-18T14:39:39.416Z,1.7
2023-02-18T14:40:55.662Z,1.5
2023-02-18T14:42:11.885Z,1.6
2023-02-18T14:43:28.142Z,1.4
2023-02-18T14:44:44.378Z,1.2
2023-02-18T14:47:16.863Z,1.5
2023-02-18T14:48:33.103Z,1.6
2023-02-18T14:49:49.332Z,1.4
2023-02-18T14:51:05.574Z,1.5
2023-02-18T14:53:38.046Z,1.5
2023-02-18T14:54:53.308Z,1.4
2023-02-18T14:56:09.548Z,1.1
2023-02-18T14:57:25.781Z,1.2
2023-02-18T14:58:42.037Z,1.3
2023-02-18T14:59:58.266Z,1.2
2023-02-18T15:01:14.510Z,1.4
2023-02-18T15:02:30.750Z,1.1
2023-02-18T15:03:46.987Z,1.2
2023-02-18T15:05:03.234Z,1.2
2023-02-18T15:06:19.478Z,1.5
2023-02-18T15:08:51.956Z,1.4
2023-02-18T15:10:07.210Z,1.3
2023-02-18T15:11:22.478Z,1.4
2023-02-18T15:12:38.701Z,1.4
2023-02-18T15:13:54.941Z,1.4
2023-02-18T15:15:11.181Z,1.4
2023-02-18T15:16:27.420Z,1.2
2023-02-18T15:17:43.676Z,1.3
2023-02-18T15:18:59.905Z,1.2
2023-02-18T15:20:16.144Z,1.2
2023-02-18T15:21:32.389Z,1.2
2023-02-18T15:22:48.640Z,1.3
2023-02-18T15:24:03.883Z,1.4
2023-02-18T15:25:19.143Z,1.4
2023-02-18T15:26:35.394Z,1.5
2023-02-18T15:27:51.629Z,1.2
2023-02-18T15:29:07.870Z,1.7
2023-02-18T15:30:24.105Z,1.6
2023-02-18T15:31:40.355Z,1.3
2023-02-18T15:32:56.596Z,1.3
2023-02-18T15:34:12.818Z,1.5
2023-02-18T15:35:29.062Z,1.5
2023-02-18T15:36:45.312Z,1.3
2023-02-18T15:38:01.543Z,1.3
2023-02-18T15:39:17.790Z,1.4
2023-02-18T15:40:34.022Z,1.5
2023-02-18T15:41:49.277Z,1.3
2023-02-18T15:43:05.523Z,1.6
2023-02-18T15:44:21.772Z,1.5
2023-02-18T15:45:38.002Z,1.2
2023-02-18T15:46:54.248Z,1.1
2023-02-18T15:48:10.492Z,1.3
2023-02-18T15:49:26.717Z,1.3
2023-02-18T15:50:42.961Z,1.3
2023-02-18T15:51:59.194Z,1.2
2023-02-18T15:53:14.466Z,1.5
2023-02-18T15:54:30.707Z,1.6
2023-02-18T15:55:46.950Z,1.8
2023-02-18T15:57:03.190Z,1.7
2023-02-18T15:58:19.420Z,1.6
2023-02-18T15:59:35.663Z,1.5
2023-02-18T16:00:51.914Z,1.7
2023-02-18T16:02:08.134Z,1.6
2023-02-18T16:03:24.390Z,1.6
2023-02-18T16:04:40.612Z,1.4
2023-02-18T16:05:56.859Z,1.4
2023-02-18T16:07:13.100Z,1.3
2023-02-18T16:09:45.576Z,1.1
2023-02-18T16:11:01.941Z,1.3
2023-02-18T16:12:18.177Z,1.4
2023-02-18T16:13:34.426Z,1.5
2023-02-18T16:14:50.663Z,1.4
2023-02-18T16:16:06.906Z,1.3
2023-02-18T16:17:23.144Z,1.3
2023-02-18T16:18:39.377Z,1.3
2023-02-18T16:19:55.623Z,1.2
2023-02-18T16:21:11.854Z,1.2
2023-02-18T16:22:28.104Z,1.4
2023-02-18T16:23:44.351Z,1.3
2023-02-18T16:25:00.588Z,1.3
2023-02-18T16:26:16.813Z,1.4
2023-02-18T16:27:32.071Z,1.3
2023-02-18T16:28:48.318Z,1.1
2023-02-18T16:30:04.560Z,1.2
2023-02-18T16:31:20.789Z,1.1
2023-02-18T16:32:37.046Z,1.2
2023-02-18T16:33:53.276Z,1.1
2023-02-18T16:35:09.513Z,1.1
2023-02-18T16:36:25.755Z,1.3
2023-02-18T16:37:41.989Z,1.6
2023-02-18T16:40:14.487Z,1.2
2023-02-18T16:41:30.716Z,1.1
2023-02-18T16:42:46.951Z,1.3
2023-02-18T16:44:03.189Z,1.2
2023-02-18T16:45:18.449Z,1.4
2023-02-18T16:46:34.702Z,1.5
2023-02-18T16:47:50.931Z,1.1
2023-02-18T16:49:07.170Z,1.2
2023-02-18T16:50:23.415Z,1.2
2023-02-18T16:51:39.654Z,1.1
2023-02-18T16:52:55.884Z,1.2
2023-02-18T16:54:12.140Z,1.3
2023-02-18T16:55:28.384Z,1.2
2023-02-18T16:56:44.604Z,1.4
2023-02-18T16:58:00.902Z,1.3
2023-02-18T16:59:17.202Z,1.2
2023-02-18T17:00:33.490Z,1.2
2023-02-18T17:01:48.812Z,1.2
2023-02-18T17:03:05.106Z,1.3
2023-02-18T17:04:21.392Z,1.3
2023-02-18T17:05:37.685Z,1.6
2023-02-18T17:06:53.990Z,1.2
2023-02-18T17:08:10.267Z,1.5
2023-02-18T17:09:26.575Z,1.4
2023-02-18T17:10:42.856Z,1.4
2023-02-18T17:11:59.161Z,1.4
2023-02-18T17:13:15.460Z,1.4
2023-02-18T17:14:31.742Z,1.5
2023-02-18T17:15:48.035Z,1.4
2023-02-18T17:17:04.340Z,1.6
2023-02-18T17:18:19.638Z,1.6
2023-02-18T17:19:35.948Z,1.6
2023-02-18T17:20:52.228Z,1.3
2023-02-18T17:22:08.517Z,1.6
2023-02-18T17:23:24.816Z,1.7
2023-02-18T17:24:41.116Z,1.7
2023-02-18T17:25:57.401Z,1.7
2023-02-18T17:27:13.693Z,1.6
2023-02-18T17:28:29.995Z,1.7
2023-02-18T17:29:46.283Z,1.8
2023-02-18T17:31:02.593Z,1.7
2023-02-18T17:32:18.868Z,1.5
2023-02-18T17:33:35.171Z,1.6
2023-02-18T17:34:50.490Z,1.7
2023-02-18T17:36:06.771Z,1.7
2023-02-18T17:37:23.060Z,1.8
2023-02-18T17:38:39.363Z,1.7
2023-02-18T17:41:11.946Z,1.7
2023-02-18T17:42:28.246Z,1.7
2023-02-18T17:43:44.542Z,1.8
2023-02-18T17:45:00.840Z,1.7
2023-02-18T17:46:17.118Z,1.7
2023-02-18T17:47:33.415Z,1.7
2023-02-18T17:48:49.710Z,1.7
2023-02-18T17:50:06.008Z,1.6
2023-02-18T17:51:21.328Z,1.7
2023-02-18T17:52:37.622Z,1.9
2023-02-18T17:53:53.906Z,1.7
2023-02-18T17:55:10.196Z,1.9
2023-02-18T17:56:26.499Z,1.8
2023-02-18T17:57:42.796Z,2.1
2023-02-18T17:58:59.093Z,2.1
2023-02-18T18:00:15.388Z,2.3
2023-02-18T18:01:31.679Z,2.1
2023-02-18T18:02:47.955Z,2.2
2023-02-18T18:04:04.236Z,2.5
2023-02-18T18:05:20.547Z,2.4
2023-02-18T18:06:36.834Z,2.4
2023-02-18T18:07:52.140Z,2.6
2023-02-18T18:09:08.433Z,2.8
2023-02-18T18:10:24.734Z,2.6
2023-02-18T18:11:41.023Z,2.4
2023-02-18T18:12:57.319Z,2.5
2023-02-18T18:14:13.606Z,2.3
2023-02-18T18:15:29.907Z,2.7
2023-02-18T18:16:46.207Z,2.6
2023-02-18T18:18:02.502Z,2.2
2023-02-18T18:19:18.780Z,2.2
2023-02-18T18:20:35.081Z,2.2
2023-02-18T18:21:51.377Z,2.3